createdAt,value
2019-05-06T00:00:14.052Z,72.60
2019-05-06T00:03:05.063Z,72.50
2019-05-06T00:08:34.440Z,73.00
2019-05-06T00:11:25.551Z,73.40
2019-05-06T00:13:56.340Z,74.00
2019-05-06T00:16:46.675Z,75.00
2019-05-06T00:19:17.244Z,75.50
2019-05-06T00:21:47.374Z,75.50
2019-05-06T00:24:17.656Z,75.60
2019-05-06T00:30:04.341Z,75.40
2019-05-06T00:32:34.870Z,75.60
2019-05-06T00:35:04.789Z,75.70
2019-05-06T00:37:55.927Z,76.30
2019-05-06T00:40:26.900Z,75.90
2019-05-06T00:43:17.309Z,76.00
2019-05-06T00:45:47.258Z,75.60
2019-05-06T00:48:16.831Z,75.80
2019-05-06T00:50:46.972Z,75.40
2019-05-06T00:53:24.201Z,76.20
2019-05-06T00:55:53.789Z,76.40
2019-05-06T00:58:26.130Z,76.70
2019-05-06T01:00:56.484Z,77.10
2019-05-06T01:03:27.773Z,77.20
2019-05-06T01:06:17.247Z,77.40
2019-05-06T01:08:48.022Z,79.20
2019-05-06T01:11:17.385Z,78.70
2019-05-06T01:13:48.402Z,78.70
2019-05-06T01:16:20.176Z,79.30
2019-05-06T01:18:49.485Z,79.30
2019-05-06T01:21:19.456Z,79.00
2019-05-06T01:23:49.639Z,79.10
2019-05-06T01:26:19.135Z,79.30
2019-05-06T01:28:48.979Z,79.80
2019-05-06T01:31:18.706Z,79.50
2019-05-06T01:33:49.407Z,79.70
2019-05-06T01:36:18.971Z,80.60
2019-05-06T01:44:13.706Z,82.30
2019-05-06T01:46:44.717Z,82.20
2019-05-06T01:49:14.761Z,82.00
2019-05-06T01:51:44.581Z,81.60
2019-05-06T01:54:14.509Z,81.70
2019-05-06T01:56:44.486Z,81.10
2019-05-06T01:59:14.529Z,81.00
2019-05-06T02:01:57.441Z,80.30
2019-05-06T02:04:39.154Z,80.50
2019-05-06T02:07:09.751Z,80.50
2019-05-06T02:09:40.089Z,80.30
2019-05-06T02:12:30.696Z,80.20
2019-05-06T02:15:14.602Z,80.30
2019-05-06T02:20:20.717Z,80.50
2019-05-06T02:22:55.266Z,80.00
2019-05-06T02:28:17.026Z,80.10
2019-05-06T02:31:00.075Z,80.50
2019-05-06T02:33:31.662Z,80.60
2019-05-06T02:36:02.730Z,80.40
2019-05-06T02:38:46.011Z,80.60
2019-05-06T02:41:05.094Z,80.60
2019-05-06T02:43:35.071Z,81.10
2019-05-06T02:46:06.072Z,81.30
2019-05-06T02:51:33.395Z,81.30
2019-05-06T02:54:03.434Z,81.30
2019-05-06T02:59:32.892Z,80.90
2019-05-06T03:02:03.317Z,81.50
2019-05-06T03:04:33.353Z,82.10
2019-05-06T03:07:03.870Z,81.00
2019-05-06T03:09:34.255Z,80.40
2019-05-06T03:12:04.434Z,81.00
2019-05-06T03:14:34.823Z,81.40
2019-05-06T03:17:05.331Z,81.30
2019-05-06T03:19:36.497Z,82.30
2019-05-06T03:24:54.533Z,83.40
2019-05-06T03:27:25.455Z,82.70
2019-05-06T03:29:57.613Z,83.10
2019-05-06T03:32:30.832Z,85.80
2019-05-06T03:35:19.317Z,85.10
2019-05-06T03:37:33.954Z,84.80
2019-05-06T03:40:03.146Z,84.60
2019-05-06T03:42:33.687Z,84.90
2019-05-06T03:45:05.243Z,85.30
2019-05-06T03:50:28.402Z,85.40
2019-05-06T03:52:59.145Z,85.40
2019-05-06T03:55:29.745Z,85.50
2019-05-06T03:58:00.282Z,86.00
2019-05-06T04:00:33.153Z,85.80
2019-05-06T04:03:03.195Z,86.20
2019-05-06T04:05:33.500Z,86.00
2019-05-06T04:10:43.886Z,88.60
2019-05-06T04:13:13.698Z,88.70
2019-05-06T04:15:55.206Z,88.60
2019-05-06T04:18:26.345Z,88.90
2019-05-06T04:20:59.246Z,88.90
2019-05-06T04:23:33.272Z,89.00
2019-05-06T04:26:13.222Z,88.80
2019-05-06T04:28:47.338Z,88.10
2019-05-06T04:31:17.830Z,87.90
2019-05-06T04:34:05.248Z,87.50
2019-05-06T04:36:44.396Z,87.30
2019-05-06T04:39:14.431Z,87.20
2019-05-06T04:41:43.901Z,87.40
2019-05-06T04:44:14.108Z,87.00
2019-05-06T04:46:44.549Z,87.00
2019-05-06T04:49:15.083Z,86.50
2019-05-06T04:51:45.373Z,86.20
2019-05-06T04:54:15.417Z,86.00
2019-05-06T04:56:46.341Z,85.90
2019-05-06T04:59:16.042Z,86.20
2019-05-06T05:01:46.395Z,86.50
2019-05-06T05:04:37.072Z,85.80
2019-05-06T05:07:08.136Z,85.80
2019-05-06T05:09:37.772Z,86.10
2019-05-06T05:12:24.378Z,84.20
2019-05-06T05:15:03.248Z,83.60
2019-05-06T05:17:39.287Z,83.30
2019-05-06T05:20:37.720Z,83.50
2019-05-06T05:23:11.801Z,83.40
2019-05-06T05:25:42.659Z,82.90
2019-05-06T05:28:13.107Z,84.40
2019-05-06T05:30:49.548Z,85.40
2019-05-06T05:33:22.340Z,84.60
2019-05-06T05:35:53.721Z,84.00
2019-05-06T05:38:29.579Z,83.80
2019-05-06T05:41:03.074Z,81.80
2019-05-06T05:43:46.316Z,80.40
2019-05-06T05:49:13.735Z,78.50
2019-05-06T05:51:45.171Z,77.30
2019-05-06T05:54:15.392Z,75.80
2019-05-06T05:56:45.235Z,75.80
2019-05-06T05:59:25.946Z,75.50
2019-05-06T06:01:57.585Z,75.40
2019-05-06T06:04:27.351Z,74.70
2019-05-06T06:06:57.175Z,72.70
2019-05-06T06:09:33.899Z,71.50
2019-05-06T06:12:11.989Z,72.70
2019-05-06T06:14:46.962Z,71.80
2019-05-06T06:17:23.515Z,73.90
2019-05-06T06:20:33.865Z,72.30
2019-05-06T06:23:06.729Z,71.50
2019-05-06T06:25:37.832Z,73.40
2019-05-06T06:28:28.212Z,70.20
2019-05-06T06:31:18.001Z,71.90
2019-05-06T06:33:49.582Z,70.20
2019-05-06T06:36:27.281Z,69.20
2019-05-06T06:39:04.573Z,68.90
2019-05-06T06:41:34.574Z,69.70
2019-05-06T06:44:05.519Z,69.40
2019-05-06T06:46:44.406Z,70.50
2019-05-06T06:49:15.249Z,69.30
2019-05-06T06:51:44.696Z,70.00
2019-05-06T06:54:23.364Z,71.00
2019-05-06T06:57:06.173Z,70.60
2019-05-06T06:59:37.938Z,69.90
2019-05-06T07:02:11.976Z,69.20
2019-05-06T07:04:48.010Z,69.40
2019-05-06T07:07:22.700Z,70.30
2019-05-06T07:09:58.600Z,67.50
2019-05-06T07:12:32.683Z,68.40
2019-05-06T07:15:24.286Z,65.80
2019-05-06T07:17:54.703Z,65.90
2019-05-06T07:20:26.031Z,67.00
2019-05-06T07:22:56.278Z,64.70
2019-05-06T07:25:25.842Z,64.50
2019-05-06T07:27:56.523Z,63.70
2019-05-06T07:30:28.091Z,65.00
2019-05-06T07:33:00.433Z,62.20
2019-05-06T07:35:38.417Z,64.10
2019-05-06T07:37:59.489Z,61.80
2019-05-06T07:40:28.765Z,59.60
2019-05-06T07:43:02.292Z,62.90
2019-05-06T07:45:36.057Z,59.50
2019-05-06T07:48:10.193Z,58.10
2019-05-06T07:50:39.871Z,60.60
2019-05-06T07:53:10.223Z,59.50
2019-05-06T07:55:42.482Z,61.60
2019-05-06T07:58:13.866Z,58.70
2019-05-06T08:00:44.356Z,57.70
2019-05-06T08:03:14.219Z,59.10
2019-05-06T08:05:55.219Z,56.20
2019-05-06T08:08:15.510Z,56.70
2019-05-06T08:10:45.164Z,51.80
2019-05-06T08:13:22.602Z,50.30
2019-05-06T08:16:04.446Z,52.50
2019-05-06T08:18:34.142Z,49.90
2019-05-06T08:21:06.308Z,51.80
2019-05-06T08:23:37.575Z,52.00
2019-05-06T08:26:18.462Z,49.00
2019-05-06T08:28:48.958Z,50.20
2019-05-06T08:31:22.413Z,47.40
2019-05-06T08:34:02.942Z,40.80
2019-05-06T08:36:45.316Z,41.20
2019-05-06T08:39:15.382Z,42.60
2019-05-06T08:41:44.776Z,46.10
2019-05-06T08:44:14.546Z,48.30
2019-05-06T08:46:44.007Z,49.60
2019-05-06T08:49:13.615Z,48.30
2019-05-06T08:51:47.562Z,47.00
2019-05-06T08:54:22.781Z,45.50
2019-05-06T08:56:55.893Z,42.20
2019-05-06T08:59:26.236Z,44.20
2019-05-06T09:02:02.962Z,46.80
2019-05-06T09:04:32.165Z,49.20
2019-05-06T09:07:02.932Z,49.90
2019-05-06T09:09:34.817Z,50.80
2019-05-06T09:12:22.277Z,46.10
2019-05-06T09:14:56.485Z,44.90
2019-05-06T09:17:29.152Z,43.90
2019-05-06T09:19:59.643Z,51.00
2019-05-06T09:22:32.586Z,49.40
2019-05-06T09:25:02.437Z,39.20
2019-05-06T09:27:33.720Z,40.10
2019-05-06T09:30:05.958Z,38.80
2019-05-06T09:32:38.087Z,38.00
2019-05-06T09:35:08.244Z,39.00
2019-05-06T09:38:02.064Z,45.60
2019-05-06T09:40:31.899Z,40.10
2019-05-06T09:43:04.760Z,40.50
2019-05-06T09:45:42.441Z,42.70
2019-05-06T09:48:15.630Z,41.30
2019-05-06T09:50:46.935Z,39.80
2019-05-06T09:53:35.906Z,42.50
2019-05-06T09:56:25.516Z,42.70
2019-05-06T09:58:55.755Z,40.90
2019-05-06T10:01:25.405Z,42.00
2019-05-06T10:03:54.859Z,42.70
2019-05-06T10:06:24.388Z,44.80
2019-05-06T10:08:55.331Z,46.20
2019-05-06T10:11:27.161Z,45.60
2019-05-06T10:13:57.721Z,46.90
2019-05-06T10:16:29.203Z,45.30
2019-05-06T10:19:24.613Z,45.50
2019-05-06T10:21:53.352Z,43.70
2019-05-06T10:24:23.737Z,38.60
2019-05-06T10:26:59.583Z,39.70
2019-05-06T10:29:32.581Z,39.20
2019-05-06T10:32:22.435Z,36.90
2019-05-06T10:34:53.418Z,37.40
2019-05-06T10:37:44.405Z,35.00
2019-05-06T10:40:29.804Z,37.90
2019-05-06T10:43:11.282Z,34.70
2019-05-06T10:45:42.566Z,35.90
2019-05-06T10:48:12.875Z,36.90
2019-05-06T10:50:48.096Z,36.30
2019-05-06T10:53:23.588Z,37.70
2019-05-06T10:55:55.224Z,38.20
2019-05-06T10:58:25.961Z,40.00
2019-05-06T11:01:19.409Z,43.60
2019-05-06T11:03:52.390Z,44.00
2019-05-06T11:06:22.134Z,45.00
2019-05-06T11:08:53.539Z,45.20
2019-05-06T11:11:32.830Z,45.80
2019-05-06T11:13:54.747Z,46.50
2019-05-06T11:16:35.566Z,46.30
2019-05-06T11:19:06.693Z,45.80
2019-05-06T11:21:37.171Z,45.30
2019-05-06T11:24:07.987Z,45.80
2019-05-06T11:26:38.974Z,45.50
2019-05-06T11:29:09.212Z,44.30
2019-05-06T11:31:48.439Z,44.00
2019-05-06T11:34:24.404Z,37.60
2019-05-06T11:36:54.767Z,38.20
2019-05-06T11:39:23.622Z,38.30
2019-05-06T11:42:06.341Z,41.10
2019-05-06T11:47:12.526Z,43.90
2019-05-06T11:49:41.039Z,43.50
2019-05-06T11:52:09.671Z,44.20
2019-05-06T11:54:38.260Z,43.70
2019-05-06T11:57:08.583Z,46.40
2019-05-06T11:59:37.166Z,45.20
2019-05-06T12:02:21.931Z,44.90
2019-05-06T12:04:52.778Z,47.10
2019-05-06T12:07:24.680Z,46.60
2019-05-06T12:09:53.865Z,46.00
2019-05-06T12:12:23.393Z,44.50
2019-05-06T12:14:53.021Z,47.40
2019-05-06T12:17:22.434Z,46.20
2019-05-06T12:19:53.013Z,45.40
2019-05-06T12:22:22.122Z,45.90
2019-05-06T12:24:52.538Z,43.70
2019-05-06T12:27:42.866Z,44.50
2019-05-06T12:30:12.337Z,44.90
2019-05-06T12:32:43.475Z,44.00
2019-05-06T12:35:12.876Z,44.60
2019-05-06T12:37:44.206Z,45.30
2019-05-06T12:40:13.041Z,46.70
2019-05-06T12:42:43.582Z,45.30
2019-05-06T12:45:32.910Z,47.30
2019-05-06T12:48:03.241Z,45.10
2019-05-06T12:50:33.345Z,47.50
2019-05-06T12:53:02.097Z,47.10
2019-05-06T12:55:51.922Z,45.50
2019-05-06T12:58:23.255Z,45.40
2019-05-06T13:00:53.962Z,45.00
2019-05-06T13:03:23.457Z,45.60
2019-05-06T13:05:52.127Z,46.40
2019-05-06T13:08:27.475Z,48.00
2019-05-06T13:10:52.607Z,48.60
2019-05-06T13:13:55.631Z,46.20
2019-05-06T13:16:12.553Z,48.00
2019-05-06T13:18:46.958Z,48.50
2019-05-06T13:21:12.684Z,48.90
2019-05-06T13:23:46.081Z,49.40
2019-05-06T13:26:14.716Z,47.60
2019-05-06T13:28:45.097Z,48.70
2019-05-06T13:31:20.829Z,46.40
2019-05-06T13:33:48.813Z,46.80
2019-05-06T13:36:17.622Z,48.30
2019-05-06T13:38:46.295Z,48.50
2019-05-06T13:41:42.053Z,46.50
2019-05-06T13:44:18.231Z,47.40
2019-05-06T13:46:49.636Z,45.70
2019-05-06T13:49:27.031Z,45.80
2019-05-06T13:52:12.414Z,43.60
2019-05-06T13:54:42.121Z,46.20
2019-05-06T13:57:12.686Z,45.20
2019-05-06T14:00:06.245Z,47.80
2019-05-06T14:02:43.709Z,46.80
2019-05-06T14:05:12.980Z,44.10
2019-05-06T14:07:47.784Z,43.60
2019-05-06T14:10:17.776Z,45.40
2019-05-06T14:12:47.265Z,44.20
2019-05-06T14:15:17.705Z,45.90
2019-05-06T14:17:48.106Z,43.70
2019-05-06T14:20:18.100Z,42.80
2019-05-06T14:22:52.827Z,42.30
2019-05-06T14:25:27.606Z,41.40
2019-05-06T14:27:59.712Z,40.80
2019-05-06T14:30:55.056Z,42.70
2019-05-06T14:33:24.470Z,42.50
2019-05-06T14:35:55.351Z,41.70
2019-05-06T14:38:25.575Z,41.10
2019-05-06T14:41:14.624Z,39.60
2019-05-06T14:43:43.805Z,39.80
2019-05-06T14:46:17.274Z,40.70
2019-05-06T14:48:47.111Z,38.30
2019-05-06T14:51:17.489Z,39.80
2019-05-06T14:54:08.130Z,41.40
2019-05-06T14:56:42.785Z,43.60
2019-05-06T14:59:12.550Z,39.90
2019-05-06T15:01:45.601Z,38.50
2019-05-06T15:04:14.304Z,40.40
2019-05-06T15:06:44.585Z,39.90
2019-05-06T15:09:17.649Z,38.00
2019-05-06T15:11:48.070Z,37.70
2019-05-06T15:14:17.400Z,36.80
2019-05-06T15:16:46.984Z,37.40
2019-05-06T15:19:17.478Z,40.10
2019-05-06T15:21:46.779Z,37.70
2019-05-06T15:24:21.913Z,36.90
2019-05-06T15:26:52.200Z,39.10
2019-05-06T15:29:48.844Z,38.90
2019-05-06T15:32:26.312Z,37.10
2019-05-06T15:35:14.345Z,40.80
2019-05-06T15:37:46.111Z,38.90
2019-05-06T15:40:30.192Z,36.50
2019-05-06T15:42:47.482Z,38.10
2019-05-06T15:45:17.736Z,37.00
2019-05-06T15:48:07.626Z,35.90
2019-05-06T15:50:38.503Z,40.10
2019-05-06T15:53:08.737Z,35.00
2019-05-06T15:55:38.854Z,38.70
2019-05-06T15:58:08.003Z,36.60
2019-05-06T16:00:38.027Z,38.50
2019-05-06T16:03:08.858Z,36.20
2019-05-06T16:05:39.034Z,37.80
2019-05-06T16:08:09.278Z,38.30
2019-05-06T16:10:51.784Z,39.20
2019-05-06T16:13:10.303Z,39.30
2019-05-06T16:15:42.352Z,39.50
2019-05-06T16:18:13.004Z,40.30
2019-05-06T16:20:43.124Z,40.60
2019-05-06T16:23:17.974Z,40.30
2019-05-06T16:25:49.195Z,40.90
2019-05-06T16:28:18.914Z,39.60
2019-05-06T16:30:49.668Z,39.40
2019-05-06T16:33:22.122Z,39.60
2019-05-06T16:35:52.269Z,40.40
2019-05-06T16:38:27.765Z,39.70
2019-05-06T16:41:09.577Z,41.60
2019-05-06T16:43:28.728Z,41.40
2019-05-06T16:46:03.299Z,43.20
2019-05-06T16:48:33.715Z,41.70
2019-05-06T16:51:04.801Z,44.10
2019-05-06T16:53:40.113Z,41.90
2019-05-06T16:56:13.190Z,42.80
2019-05-06T16:59:11.133Z,41.00
2019-05-06T17:01:48.683Z,41.90
2019-05-06T17:04:23.216Z,41.80
2019-05-06T17:06:56.178Z,42.20
2019-05-06T17:09:37.250Z,42.40
2019-05-06T17:12:04.694Z,43.00
2019-05-06T17:14:35.041Z,43.40
2019-05-06T17:17:40.710Z,42.60
2019-05-06T17:20:02.925Z,43.90
2019-05-06T17:22:32.669Z,42.50
2019-05-06T17:25:08.373Z,42.60
2019-05-06T17:27:40.280Z,44.40
2019-05-06T17:30:33.147Z,43.60
2019-05-06T17:33:22.559Z,44.00
2019-05-06T17:38:52.603Z,46.00
2019-05-06T17:41:26.525Z,45.30
2019-05-06T17:44:06.267Z,46.20
2019-05-06T17:47:04.947Z,46.70
2019-05-06T17:49:42.224Z,46.40
2019-05-06T17:52:42.527Z,46.70
2019-05-06T17:55:39.694Z,47.30
2019-05-06T17:58:12.994Z,49.80
2019-05-06T18:01:09.801Z,49.40
2019-05-06T18:03:46.687Z,49.60
2019-05-06T18:06:55.934Z,49.90
2019-05-06T18:09:27.855Z,49.70
2019-05-06T18:11:59.722Z,50.50
2019-05-06T18:14:36.958Z,50.70
2019-05-06T18:17:12.487Z,51.30
2019-05-06T18:19:43.826Z,51.80
2019-05-06T18:22:24.796Z,52.20
2019-05-06T18:25:14.589Z,52.10
2019-05-06T18:27:45.378Z,52.60
2019-05-06T18:33:02.364Z,52.90
2019-05-06T18:35:32.129Z,53.40
2019-05-06T18:38:26.689Z,53.30
2019-05-06T18:41:13.150Z,53.80
2019-05-06T18:43:44.189Z,54.60
2019-05-06T18:46:14.535Z,55.00
2019-05-06T18:48:49.276Z,55.40
2019-05-06T18:51:22.183Z,55.30
2019-05-06T18:54:13.313Z,55.80
2019-05-06T18:56:54.367Z,56.10
2019-05-06T18:59:24.546Z,56.10
2019-05-06T19:01:54.566Z,56.60
2019-05-06T19:04:42.176Z,56.50
2019-05-06T19:07:16.192Z,56.80
2019-05-06T19:09:52.552Z,55.90
2019-05-06T19:12:39.182Z,56.50
2019-05-06T19:15:03.326Z,57.40
2019-05-06T19:17:34.074Z,56.70
2019-05-06T19:20:08.969Z,56.60
2019-05-06T19:22:40.757Z,56.10
2019-05-06T19:25:14.439Z,56.20
2019-05-06T19:30:57.549Z,55.20
2019-05-06T19:33:28.442Z,55.00
2019-05-06T19:35:58.587Z,55.10
2019-05-06T19:38:37.753Z,55.50
2019-05-06T19:41:08.683Z,56.10
2019-05-06T19:43:38.197Z,55.30
2019-05-06T19:46:17.363Z,55.20
2019-05-06T19:48:52.264Z,55.40
2019-05-06T19:51:26.353Z,55.20
2019-05-06T19:54:12.614Z,55.90
2019-05-06T19:56:42.388Z,55.70
2019-05-06T19:59:15.074Z,55.10
2019-05-06T20:04:44.038Z,55.30
2019-05-06T20:07:29.030Z,56.10
2019-05-06T20:09:59.880Z,55.40
2019-05-06T20:12:58.393Z,55.60
2019-05-06T20:15:33.797Z,55.20
2019-05-06T20:18:05.353Z,55.80
2019-05-06T20:20:39.087Z,55.40
2019-05-06T20:23:08.630Z,55.90
2019-05-06T20:25:38.074Z,55.80
2019-05-06T20:28:07.786Z,55.80
2019-05-06T20:30:37.661Z,56.10
2019-05-06T20:33:07.631Z,56.40
2019-05-06T20:35:43.265Z,55.80
2019-05-06T20:38:13.378Z,56.60
2019-05-06T20:40:43.195Z,55.70
2019-05-06T20:43:19.613Z,56.50
2019-05-06T20:45:44.080Z,56.70
2019-05-06T20:48:26.322Z,56.80
2019-05-06T20:50:57.223Z,58.10
2019-05-06T20:53:26.552Z,58.40
2019-05-06T20:56:03.086Z,59.40
2019-05-06T20:58:37.655Z,59.00
2019-05-06T21:01:07.106Z,60.20
2019-05-06T21:03:42.345Z,60.30
2019-05-06T21:06:13.152Z,60.30
2019-05-06T21:08:43.347Z,60.80
2019-05-06T21:11:29.502Z,60.80
2019-05-06T21:14:02.218Z,61.10
2019-05-06T21:16:32.081Z,61.60
2019-05-06T21:19:07.398Z,61.70
2019-05-06T21:21:37.289Z,62.00
2019-05-06T21:24:06.886Z,61.20
2019-05-06T21:26:42.869Z,61.90
2019-05-06T21:29:14.035Z,61.80
2019-05-06T21:31:43.807Z,62.30
2019-05-06T21:34:13.418Z,61.90
2019-05-06T21:36:42.941Z,62.30
2019-05-06T21:39:13.167Z,62.10
2019-05-06T21:41:52.135Z,62.80
2019-05-06T21:44:22.804Z,62.70
2019-05-06T21:46:54.381Z,63.20
2019-05-06T21:49:32.636Z,63.90
2019-05-06T21:52:02.341Z,63.90
2019-05-06T21:54:32.893Z,64.20
2019-05-06T21:57:31.811Z,64.20
2019-05-06T22:00:02.641Z,64.00
2019-05-06T22:02:32.710Z,64.60
2019-05-06T22:05:02.856Z,65.20
2019-05-06T22:07:33.189Z,65.20
2019-05-06T22:10:03.287Z,65.00
2019-05-06T22:12:38.698Z,64.80
2019-05-06T22:15:08.789Z,64.70
2019-05-06T22:17:38.100Z,64.40
2019-05-06T22:20:08.230Z,65.00
2019-05-06T22:22:39.310Z,64.40
2019-05-06T22:25:09.786Z,64.60
2019-05-06T22:27:38.962Z,64.30
2019-05-06T22:30:09.332Z,64.80
2019-05-06T22:32:52.575Z,65.10
2019-05-06T22:35:23.041Z,64.40
2019-05-06T22:37:53.114Z,64.20
2019-05-06T22:40:32.639Z,64.30
2019-05-06T22:43:03.206Z,63.90
2019-05-06T22:45:33.062Z,64.10
2019-05-06T22:48:09.444Z,64.30
2019-05-06T22:50:39.788Z,64.90
2019-05-06T22:53:08.794Z,64.60
2019-05-06T22:55:43.895Z,65.00
2019-05-06T22:58:13.137Z,64.70
2019-05-06T23:00:43.868Z,64.80
2019-05-06T23:03:57.127Z,64.80
2019-05-06T23:06:26.676Z,64.50
2019-05-06T23:08:56.496Z,64.80
2019-05-06T23:11:32.829Z,65.60
2019-05-06T23:14:02.721Z,65.60
2019-05-06T23:16:33.109Z,65.30
2019-05-06T23:19:07.660Z,65.50
2019-05-06T23:21:37.794Z,65.90
2019-05-06T23:24:09.010Z,65.70
2019-05-06T23:26:55.112Z,66.60
2019-05-06T23:32:33.365Z,65.90
2019-05-06T23:35:31.239Z,65.90
2019-05-06T23:42:23.172Z,66.80
2019-05-06T23:48:56.859Z,67.20
2019-05-06T23:52:13.176Z,67.10
2019-05-06T23:55:22.214Z,67.50
